Time;durP1;ratioP1;P1;durP2;ratioP2;P2;SDS_P1;SDS_P2;PMS_P1;PMS_P2;Temp;Humidity;BMP_temperature;BMP_pressure;BME280_temperature;BME280_humidity;BME280_pressure;Samples;Min_cycle;Max_cycle;Signal;HPM_P1;HPM_P2
2022/11/07 00:01:35;;;;;;;47.67;23.08;;;;;;;;;;4922054;29;20652;-49
2022/11/07 00:04:02;;;;;;;45.88;22.52;;;;;;;;;;4922003;29;20247;-50
2022/11/07 00:06:30;;;;;;;49.40;21.15;;;;;;;;;;4921704;29;20217;-50
2022/11/07 00:08:57;;;;;;;54.38;22.23;;;;;;;;;;4921887;29;20308;-48
2022/11/07 00:11:25;;;;;;;130.38;64.10;;;;;;;;;;4921596;29;20272;-50
2022/11/07 00:13:51;;;;;;;171.45;123.93;;;;;;;;;;4921896;29;20216;-50
2022/11/07 00:16:19;;;;;;;233.85;81.15;;;;;;;;;;4921860;29;20240;-48
2022/11/07 00:18:46;;;;;;;193.45;54.75;;;;;;;;;;4921879;29;20220;-49
2022/11/07 00:21:13;;;;;;;85.90;32.17;;;;;;;;;;4921667;29;20212;-48
2022/11/07 00:23:40;;;;;;;92.20;33.45;;;;;;;;;;4922108;29;20248;-48
2022/11/07 00:26:10;;;;;;;80.95;31.40;;;;;;;;;;4922057;29;20209;-50
2022/11/07 00:28:39;;;;;;;70.82;29.23;;;;;;;;;;4921604;29;20232;-49
2022/11/07 00:31:08;;;;;;;57.17;25.20;;;;;;;;;;4921514;29;20221;-48
2022/11/07 00:33:35;;;;;;;48.05;20.92;;;;;;;;;;4921437;29;20279;-50
2022/11/07 00:36:03;;;;;;;46.33;20.98;;;;;;;;;;4921138;29;20640;-52
2022/11/07 00:38:29;;;;;;;264.23;220.27;;;;;;;;;;4922120;29;20311;-50
2022/11/07 00:41:02;;;;;;;159.32;81.75;;;;;;;;;;4921257;29;20208;-50
2022/11/07 00:43:29;;;;;;;136.88;42.95;;;;;;;;;;4905316;29;20197;-49
2022/11/07 00:45:59;;;;;;;113.72;35.60;;;;;;;;;;4920974;29;20204;-50
2022/11/07 00:48:26;;;;;;;97.57;33.15;;;;;;;;;;4920881;29;20205;-49
2022/11/07 00:50:53;;;;;;;69.75;26.80;;;;;;;;;;4921147;29;20566;-48
2022/11/07 00:53:20;;;;;;;55.65;22.70;;;;;;;;;;4921224;29;20234;-50
2022/11/07 00:55:47;;;;;;;50.05;22.15;;;;;;;;;;4920837;29;20213;-50
2022/11/07 00:58:15;;;;;;;48.33;20.52;;;;;;;;;;4921107;29;20236;-49
2022/11/07 01:00:43;;;;;;;44.53;20.02;;;;;;;;;;4921014;29;20212;-48
2022/11/07 01:06:02;;;;;;;226.50;132.50;;;;;;;;;;4921126;29;20222;-49
2022/11/07 01:08:30;;;;;;;222.45;67.97;;;;;;;;;;4920958;29;20204;-50
2022/11/07 01:10:58;;;;;;;151.20;41.03;;;;;;;;;;4919635;29;20576;-49
2022/11/07 01:13:25;;;;;;;67.40;24.67;;;;;;;;;;4920688;29;20276;-50
2022/11/07 01:15:52;;;;;;;76.35;26.45;;;;;;;;;;4920802;29;20615;-49
2022/11/07 01:18:19;;;;;;;62.65;22.55;;;;;;;;;;4920546;29;20233;-49
2022/11/07 01:20:48;;;;;;;78.22;28.33;;;;;;;;;;4920634;29;20632;-50
2022/11/07 01:23:16;;;;;;;81.57;28.08;;;;;;;;;;4920619;29;20251;-48
2022/11/07 01:25:44;;;;;;;64.75;24.70;;;;;;;;;;4920516;29;20216;-50
2022/11/07 01:28:11;;;;;;;64.68;25.02;;;;;;;;;;4920389;29;20236;-49
2022/11/07 01:30:40;;;;;;;170.80;87.15;;;;;;;;;;4920140;29;20229;-50
2022/11/07 01:33:07;;;;;;;314.23;199.85;;;;;;;;;;4920394;29;20219;-52
2022/11/07 01:35:35;;;;;;;356.17;125.60;;;;;;;;;;4920101;29;20536;-51
2022/11/07 01:38:03;;;;;;;249.05;74.63;;;;;;;;;;4920283;29;20703;-50
2022/11/07 01:40:31;;;;;;;140.68;44.28;;;;;;;;;;4919846;29;20554;-53
2022/11/07 01:42:58;;;;;;;129.40;38.65;;;;;;;;;;4920851;29;20312;-49
2022/11/07 01:45:28;;;;;;;109.53;35.92;;;;;;;;;;4920418;29;20212;-49
2022/11/07 01:47:57;;;;;;;72.22;26.98;;;;;;;;;;4920169;29;20501;-49
2022/11/07 01:50:25;;;;;;;66.45;25.77;;;;;;;;;;4903576;29;20229;-49
2022/11/07 01:52:53;;;;;;;48.55;20.38;;;;;;;;;;4920010;29;20223;-48
2022/11/07 01:55:32;;;;;;;93.20;30.50;;;;;;;;;;4920605;29;20244;-49
2022/11/07 01:58:03;;;;;;;34.58;16.73;;;;;;;;;;4920177;29;20287;-49
2022/11/07 02:00:32;;;;;;;232.32;85.45;;;;;;;;;;4903964;29;20209;-49
2022/11/07 02:03:05;;;;;;;115.90;40.80;;;;;;;;;;4919657;29;20216;-49
2022/11/07 02:05:43;;;;;;;129.48;39.33;;;;;;;;;;4919702;29;20221;-52
2022/11/07 02:08:12;;;;;;;53.17;22.10;;;;;;;;;;4903569;29;20585;-50
2022/11/07 02:10:40;;;;;;;78.88;26.65;;;;;;;;;;4903502;29;20233;-48
2022/11/07 02:13:08;;;;;;;37.92;17.48;;;;;;;;;;4903334;29;20221;-48
2022/11/07 02:15:35;;;;;;;51.80;21.08;;;;;;;;;;4903217;29;20251;-49
2022/11/07 02:18:02;;;;;;;38.63;18.02;;;;;;;;;;4903162;29;20300;-52
2022/11/07 02:20:29;;;;;;;39.97;18.58;;;;;;;;;;4919817;29;20377;-52
2022/11/07 02:23:05;;;;;;;26.85;15.32;;;;;;;;;;4919480;29;20288;-49
2022/11/07 02:25:33;;;;;;;25.63;14.85;;;;;;;;;;4903033;29;20209;-50
2022/11/07 02:28:03;;;;;;;28.25;15.32;;;;;;;;;;4919384;29;20300;-49
2022/11/07 02:30:33;;;;;;;72.35;23.65;;;;;;;;;;4902778;29;20233;-50
2022/11/07 02:33:00;;;;;;;37.08;16.08;;;;;;;;;;4919939;29;20247;-49
2022/11/07 02:35:42;;;;;;;27.73;15.02;;;;;;;;;;4902945;29;20208;-50
2022/11/07 02:38:21;;;;;;;31.65;15.70;;;;;;;;;;4919338;29;20221;-50
2022/11/07 02:40:52;;;;;;;29.58;15.05;;;;;;;;;;4903107;29;20333;-49
2022/11/07 02:43:21;;;;;;;32.35;15.95;;;;;;;;;;4902903;29;20591;-51
2022/11/07 02:45:49;;;;;;;27.58;15.68;;;;;;;;;;4919272;29;20548;-48
2022/11/07 02:48:16;;;;;;;28.45;16.13;;;;;;;;;;4902551;29;20244;-48
2022/11/07 02:50:43;;;;;;;37.28;18.40;;;;;;;;;;4919065;29;20232;-49
2022/11/07 02:53:10;;;;;;;33.70;18.13;;;;;;;;;;4918964;29;20208;-50
2022/11/07 02:55:38;;;;;;;27.75;15.65;;;;;;;;;;4918984;29;20239;-49
2022/11/07 02:58:05;;;;;;;41.70;18.42;;;;;;;;;;4902339;29;20236;-50
2022/11/07 03:00:32;;;;;;;32.05;17.10;;;;;;;;;;4919763;29;20235;-49
2022/11/07 03:02:59;;;;;;;33.00;16.30;;;;;;;;;;4918940;29;20236;-50
2022/11/07 03:05:26;;;;;;;34.65;17.73;;;;;;;;;;4919056;29;20220;-48
2022/11/07 03:07:53;;;;;;;32.22;17.67;;;;;;;;;;4918821;29;20287;-49
2022/11/07 03:10:20;;;;;;;33.08;17.33;;;;;;;;;;4918495;29;20265;-52
2022/11/07 03:12:47;;;;;;;36.42;17.92;;;;;;;;;;4918778;29;20216;-48
2022/11/07 03:15:14;;;;;;;35.20;17.77;;;;;;;;;;4918778;29;20236;-49
2022/11/07 03:17:41;;;;;;;47.30;27.05;;;;;;;;;;4918953;29;20217;-50
2022/11/07 03:20:09;;;;;;;91.50;57.25;;;;;;;;;;4918425;29;20216;-53
2022/11/07 03:22:36;;;;;;;45.83;21.90;;;;;;;;;;4918608;29;20209;-49
2022/11/07 03:25:04;;;;;;;37.92;18.05;;;;;;;;;;4918516;29;20204;-49
2022/11/07 03:27:31;;;;;;;41.28;19.35;;;;;;;;;;4918624;29;20222;-48
2022/11/07 03:29:58;;;;;;;37.97;18.73;;;;;;;;;;4918383;29;20220;-49
2022/11/07 03:32:25;;;;;;;38.35;19.58;;;;;;;;;;4918653;29;20247;-49
2022/11/07 03:34:53;;;;;;;31.48;17.55;;;;;;;;;;4920855;29;20271;-48
2022/11/07 03:37:20;;;;;;;30.90;17.35;;;;;;;;;;4922486;29;20208;-48
2022/11/07 03:39:47;;;;;;;31.85;17.08;;;;;;;;;;4923005;29;20209;-48
2022/11/07 03:42:14;;;;;;;32.70;16.25;;;;;;;;;;4922120;29;20644;-50
2022/11/07 03:44:41;;;;;;;40.05;20.92;;;;;;;;;;4922333;29;20664;-54
2022/11/07 03:47:08;;;;;;;82.13;52.15;;;;;;;;;;4922142;29;20548;-49
2022/11/07 03:49:35;;;;;;;49.08;24.27;;;;;;;;;;4922370;29;20217;-53
2022/11/07 03:52:02;;;;;;;61.83;24.00;;;;;;;;;;4922188;29;20315;-49
2022/11/07 03:54:29;;;;;;;45.20;19.75;;;;;;;;;;4906286;29;20215;-48
2022/11/07 03:56:56;;;;;;;49.13;18.27;;;;;;;;;;4922021;29;20651;-48
2022/11/07 03:59:23;;;;;;;45.40;20.10;;;;;;;;;;4922151;29;20224;-49
2022/11/07 04:01:50;;;;;;;40.97;18.23;;;;;;;;;;4922061;29;20224;-48
2022/11/07 04:04:18;;;;;;;31.38;16.17;;;;;;;;;;4921756;29;20201;-49
2022/11/07 04:06:45;;;;;;;31.83;17.00;;;;;;;;;;4922009;29;20205;-49
2022/11/07 04:09:12;;;;;;;36.40;17.30;;;;;;;;;;4921826;29;20209;-50
2022/11/07 04:17:19;;;;;;;140.43;43.10;;;;;;;;;;4921692;29;20264;-51
2022/11/07 04:19:48;;;;;;;87.55;29.73;;;;;;;;;;4906688;29;20212;-56
2022/11/07 04:22:15;;;;;;;68.00;25.05;;;;;;;;;;4921602;29;20212;-48
2022/11/07 04:24:43;;;;;;;67.93;27.15;;;;;;;;;;4921681;29;20268;-49
2022/11/07 04:30:17;;;;;;;40.75;19.10;;;;;;;;;;4921821;29;20220;-49
2022/11/07 04:32:52;;;;;;;51.38;20.10;;;;;;;;;;4929813;29;20306;-49
2022/11/07 04:35:21;;;;;;;48.40;20.20;;;;;;;;;;4930771;29;20203;-52
2022/11/07 04:37:48;;;;;;;82.38;24.95;;;;;;;;;;4927905;29;20232;-50
2022/11/07 04:40:16;;;;;;;199.35;148.43;;;;;;;;;;4928836;29;20715;-51
2022/11/07 04:42:44;;;;;;;150.50;50.88;;;;;;;;;;4928126;29;20240;-48
2022/11/07 04:45:11;;;;;;;130.48;37.58;;;;;;;;;;4928012;29;20213;-55
2022/11/07 04:47:39;;;;;;;89.43;28.92;;;;;;;;;;4927061;29;20705;-54
2022/11/07 04:50:09;;;;;;;68.82;24.33;;;;;;;;;;4927652;29;20535;-49
2022/11/07 04:52:36;;;;;;;61.58;23.60;;;;;;;;;;4911942;29;20637;-49
2022/11/07 04:55:05;;;;;;;49.13;19.90;;;;;;;;;;4931758;29;20259;-49
2022/11/07 04:57:32;;;;;;;55.05;21.58;;;;;;;;;;4930287;29;20621;-50
2022/11/07 04:59:59;;;;;;;54.03;20.25;;;;;;;;;;4932369;29;20644;-50
2022/11/07 05:02:26;;;;;;;47.50;18.23;;;;;;;;;;4923043;29;20235;-48
2022/11/07 05:04:54;;;;;;;61.55;22.60;;;;;;;;;;4924043;29;20253;-52
2022/11/07 05:07:20;;;;;;;388.50;292.35;;;;;;;;;;4926025;29;20240;-48
2022/11/07 05:09:47;;;;;;;107.30;56.15;;;;;;;;;;4919967;29;20233;-48
2022/11/07 05:12:15;;;;;;;96.63;30.85;;;;;;;;;;4902951;29;20249;-48
2022/11/07 05:14:42;;;;;;;97.53;30.33;;;;;;;;;;4933063;29;20525;-51
2022/11/07 05:17:13;;;;;;;73.82;24.38;;;;;;;;;;4922187;29;20241;-50
2022/11/07 05:19:42;;;;;;;59.35;21.52;;;;;;;;;;4921007;29;20239;-50
2022/11/07 05:24:55;;;;;;;61.13;22.40;;;;;;;;;;4926874;29;20224;-49
2022/11/07 05:27:22;;;;;;;51.78;20.83;;;;;;;;;;4919291;29;20268;-49
2022/11/07 05:29:50;;;;;;;38.08;16.15;;;;;;;;;;4919006;29;20251;-48
2022/11/07 05:32:17;;;;;;;351.17;200.75;;;;;;;;;;4912609;29;20233;-50
2022/11/07 05:34:44;;;;;;;181.35;93.55;;;;;;;;;;4899624;29;20237;-56
2022/11/07 05:37:13;;;;;;;90.07;32.15;;;;;;;;;;4928228;29;20240;-50
2022/11/07 05:39:40;;;;;;;71.28;23.92;;;;;;;;;;4925974;29;20243;-52
2022/11/07 05:42:07;;;;;;;60.92;22.35;;;;;;;;;;4919267;29;20319;-52
2022/11/07 05:44:34;;;;;;;48.28;19.08;;;;;;;;;;4909583;29;20229;-48
2022/11/07 05:47:01;;;;;;;36.97;14.63;;;;;;;;;;4912675;29;20232;-47
2022/11/07 05:49:28;;;;;;;29.52;15.07;;;;;;;;;;4918145;29;20529;-48
2022/11/07 05:51:56;;;;;;;41.33;17.27;;;;;;;;;;4917951;29;20609;-52
2022/11/07 05:54:23;;;;;;;45.25;18.10;;;;;;;;;;4920581;29;20225;-53
2022/11/07 05:56:54;;;;;;;39.03;16.88;;;;;;;;;;4917523;29;20571;-49
2022/11/07 05:59:21;;;;;;;189.43;131.45;;;;;;;;;;4917672;29;20244;-53
2022/11/07 06:01:48;;;;;;;134.18;70.38;;;;;;;;;;4918368;29;20311;-51
2022/11/07 06:04:17;;;;;;;103.07;37.83;;;;;;;;;;4917928;29;20695;-48
2022/11/07 06:06:44;;;;;;;95.55;30.38;;;;;;;;;;4919117;29;20233;-47
2022/11/07 06:09:11;;;;;;;53.63;22.30;;;;;;;;;;4918985;29;20251;-51
2022/11/07 06:11:39;;;;;;;40.90;20.17;;;;;;;;;;4918847;29;20627;-48
2022/11/07 06:14:06;;;;;;;56.42;23.98;;;;;;;;;;4902341;29;20229;-49
2022/11/07 06:16:33;;;;;;;46.28;20.75;;;;;;;;;;4919509;29;20267;-54
2022/11/07 06:19:01;;;;;;;37.20;18.48;;;;;;;;;;4919614;29;20208;-50
2022/11/07 06:21:28;;;;;;;32.95;18.20;;;;;;;;;;4919319;29;20213;-50
2022/11/07 06:23:56;;;;;;;34.78;18.42;;;;;;;;;;4919245;29;20216;-51
2022/11/07 06:26:24;;;;;;;62.42;30.38;;;;;;;;;;4919171;29;20293;-51
2022/11/07 06:28:51;;;;;;;40.45;26.20;;;;;;;;;;4919287;29;20204;-52
2022/11/07 06:31:19;;;;;;;66.45;28.42;;;;;;;;;;4919238;29;20243;-51
2022/11/07 06:33:49;;;;;;;72.45;27.45;;;;;;;;;;4919450;29;20283;-50
2022/11/07 06:36:16;;;;;;;48.40;20.88;;;;;;;;;;4919037;29;20284;-52
2022/11/07 06:38:43;;;;;;;56.38;23.80;;;;;;;;;;4902768;29;20205;-53
2022/11/07 06:41:12;;;;;;;45.25;21.00;;;;;;;;;;4919183;29;20212;-49
2022/11/07 06:43:39;;;;;;;57.53;24.00;;;;;;;;;;4919656;29;20280;-52
2022/11/07 06:46:09;;;;;;;47.90;22.63;;;;;;;;;;4902780;29;20707;-51
2022/11/07 06:48:36;;;;;;;50.05;24.20;;;;;;;;;;4902049;29;20211;-49
2022/11/07 06:51:05;;;;;;;47.47;23.88;;;;;;;;;;4918696;29;20213;-49
2022/11/07 06:53:32;;;;;;;76.00;36.65;;;;;;;;;;4918900;29;20639;-52
2022/11/07 06:56:00;;;;;;;61.45;40.22;;;;;;;;;;4919204;29;20276;-49
2022/11/07 06:58:27;;;;;;;70.03;30.15;;;;;;;;;;4919057;29;20216;-53
2022/11/07 07:00:57;;;;;;;77.00;28.45;;;;;;;;;;4918978;29;20212;-50
2022/11/07 07:03:25;;;;;;;58.08;25.60;;;;;;;;;;4918645;29;20209;-49
2022/11/07 07:05:51;;;;;;;50.83;24.42;;;;;;;;;;4918722;29;20222;-47
2022/11/07 07:08:19;;;;;;;60.33;27.90;;;;;;;;;;4918129;29;20248;-53
2022/11/07 07:10:46;;;;;;;61.22;27.00;;;;;;;;;;4918523;29;20269;-54
2022/11/07 07:13:13;;;;;;;49.65;23.77;;;;;;;;;;4919077;29;20236;-49
2022/11/07 07:15:41;;;;;;;52.50;24.83;;;;;;;;;;4918595;29;20737;-49
2022/11/07 07:18:18;;;;;;;48.50;24.08;;;;;;;;;;4918485;29;20632;-49
2022/11/07 07:20:48;;;;;;;49.15;24.30;;;;;;;;;;4918653;29;20296;-50
2022/11/07 07:23:19;;;;;;;90.38;57.17;;;;;;;;;;4918717;29;20220;-49
2022/11/07 07:25:47;;;;;;;63.47;31.75;;;;;;;;;;4918639;29;20632;-49
2022/11/07 07:28:14;;;;;;;72.05;28.88;;;;;;;;;;4918433;29;20212;-48
2022/11/07 07:30:41;;;;;;;72.95;28.38;;;;;;;;;;4918152;29;20213;-48
2022/11/07 07:33:14;;;;;;;51.53;25.60;;;;;;;;;;4902891;29;20253;-51
2022/11/07 07:35:42;;;;;;;54.90;26.58;;;;;;;;;;4918498;29;20378;-51
2022/11/07 07:38:10;;;;;;;61.22;28.25;;;;;;;;;;4870826;29;20204;-48
2022/11/07 07:40:37;;;;;;;54.78;27.52;;;;;;;;;;4918331;29;20244;-51
2022/11/07 07:43:04;;;;;;;53.95;26.55;;;;;;;;;;4918390;29;20209;-49
2022/11/07 07:45:31;;;;;;;57.85;28.05;;;;;;;;;;4918624;29;20209;-48
2022/11/07 07:48:02;;;;;;;62.13;27.92;;;;;;;;;;4918422;29;20209;-49
2022/11/07 07:50:28;;;;;;;61.83;34.40;;;;;;;;;;4918439;29;20220;-50
2022/11/07 07:52:57;;;;;;;57.70;35.40;;;;;;;;;;4918219;29;20735;-49
2022/11/07 07:55:24;;;;;;;92.70;36.58;;;;;;;;;;4918336;29;20276;-49
2022/11/07 07:57:51;;;;;;;82.15;33.67;;;;;;;;;;4918392;29;20220;-50
2022/11/07 08:00:18;;;;;;;72.80;31.40;;;;;;;;;;4918324;29;20205;-50
2022/11/07 08:02:45;;;;;;;71.68;31.02;;;;;;;;;;4918261;29;20213;-48
2022/11/07 08:05:14;;;;;;;64.63;30.83;;;;;;;;;;4918127;29;20213;-49
2022/11/07 08:07:47;;;;;;;56.13;28.92;;;;;;;;;;4918183;29;20204;-50
2022/11/07 08:10:16;;;;;;;54.28;27.55;;;;;;;;;;4918187;29;20276;-48
2022/11/07 08:13:03;;;;;;;52.70;27.77;;;;;;;;;;4917794;29;20244;-48
2022/11/07 08:15:30;;;;;;;53.10;26.98;;;;;;;;;;4918455;29;20656;-49
2022/11/07 08:18:00;;;;;;;59.17;28.80;;;;;;;;;;4918501;29;20205;-49
2022/11/07 08:20:28;;;;;;;134.60;87.75;;;;;;;;;;4919387;29;20212;-48
2022/11/07 08:23:02;;;;;;;97.72;40.45;;;;;;;;;;4921649;29;20264;-49
2022/11/07 08:25:30;;;;;;;106.22;39.47;;;;;;;;;;4921740;29;20219;-48
2022/11/07 08:27:58;;;;;;;75.03;32.28;;;;;;;;;;4921288;29;20603;-49
2022/11/07 08:30:25;;;;;;;61.45;28.58;;;;;;;;;;4921634;29;20232;-49
2022/11/07 08:32:53;;;;;;;56.45;28.02;;;;;;;;;;4921049;29;20232;-48
2022/11/07 08:35:20;;;;;;;52.35;26.08;;;;;;;;;;4921896;29;20620;-49
2022/11/07 08:37:47;;;;;;;49.58;26.30;;;;;;;;;;4921341;29;20571;-48
2022/11/07 08:40:14;;;;;;;55.88;27.23;;;;;;;;;;4921367;29;20291;-50
2022/11/07 08:42:41;;;;;;;59.15;28.25;;;;;;;;;;4921039;29;20541;-50
2022/11/07 08:45:08;;;;;;;54.08;27.13;;;;;;;;;;4904955;29;20300;-49
2022/11/07 08:47:35;;;;;;;92.13;42.97;;;;;;;;;;4920906;29;20541;-48
2022/11/07 08:50:03;;;;;;;98.60;65.70;;;;;;;;;;4921141;29;20228;-49
2022/11/07 08:52:30;;;;;;;103.32;38.78;;;;;;;;;;4921027;29;20225;-51
2022/11/07 08:54:57;;;;;;;77.90;31.70;;;;;;;;;;4921115;29;20213;-49
2022/11/07 08:57:24;;;;;;;57.13;27.90;;;;;;;;;;4921013;29;20216;-49
2022/11/07 08:59:51;;;;;;;55.30;29.48;;;;;;;;;;4920878;29;20233;-51
2022/11/07 09:02:18;;;;;;;55.33;29.52;;;;;;;;;;4920583;29;20644;-49
2022/11/07 09:05:05;;;;;;;54.58;28.88;;;;;;;;;;4920876;29;20264;-50
2022/11/07 09:07:33;;;;;;;59.08;28.20;;;;;;;;;;4920639;29;20217;-50
2022/11/07 09:10:00;;;;;;;60.40;29.77;;;;;;;;;;4904435;29;20233;-49
2022/11/07 09:12:27;;;;;;;58.53;29.30;;;;;;;;;;4873265;29;20232;-50
2022/11/07 09:14:54;;;;;;;54.28;28.15;;;;;;;;;;4920513;29;20212;-52
2022/11/07 09:17:21;;;;;;;159.40;75.47;;;;;;;;;;4921330;29;20501;-48
2022/11/07 09:19:48;;;;;;;112.95;50.63;;;;;;;;;;4920932;29;20224;-50
2022/11/07 09:22:15;;;;;;;72.90;33.65;;;;;;;;;;4904105;29;20234;-48
2022/11/07 09:24:42;;;;;;;83.85;33.70;;;;;;;;;;4920439;29;20209;-50
2022/11/07 09:27:09;;;;;;;56.72;27.95;;;;;;;;;;4920114;29;20212;-50
2022/11/07 09:29:36;;;;;;;62.35;27.58;;;;;;;;;;4920503;29;20209;-49
2022/11/07 09:32:03;;;;;;;51.60;25.65;;;;;;;;;;4920198;29;20239;-50
2022/11/07 09:34:50;;;;;;;56.88;28.05;;;;;;;;;;4920603;29;20237;-49
2022/11/07 09:37:27;;;;;;;64.15;29.88;;;;;;;;;;4920566;29;20256;-51
2022/11/07 09:39:53;;;;;;;54.33;27.13;;;;;;;;;;4920075;29;20605;-49
2022/11/07 09:42:33;;;;;;;50.78;27.27;;;;;;;;;;4920159;29;20213;-48
2022/11/07 09:45:01;;;;;;;69.82;37.60;;;;;;;;;;4920018;29;20200;-52
2022/11/07 09:47:37;;;;;;;52.58;33.25;;;;;;;;;;4920234;29;20205;-49
2022/11/07 09:50:34;;;;;;;76.47;34.22;;;;;;;;;;4919969;29;20247;-50
2022/11/07 09:53:08;;;;;;;79.07;34.08;;;;;;;;;;4920010;29;20225;-49
2022/11/07 09:55:57;;;;;;;90.28;34.50;;;;;;;;;;4920298;29;20295;-50
2022/11/07 09:58:32;;;;;;;57.45;29.20;;;;;;;;;;4920032;29;20216;-48
2022/11/07 10:01:02;;;;;;;54.92;28.30;;;;;;;;;;4903501;29;20303;-51
2022/11/07 10:03:31;;;;;;;59.38;30.55;;;;;;;;;;4920165;29;20509;-49
2022/11/07 10:06:04;;;;;;;56.72;29.50;;;;;;;;;;4903136;29;20259;-49
2022/11/07 10:08:58;;;;;;;55.45;28.67;;;;;;;;;;4919813;29;20216;-50
2022/11/07 10:11:46;;;;;;;62.00;28.45;;;;;;;;;;4919506;29;20655;-52
2022/11/07 10:14:20;;;;;;;70.22;35.25;;;;;;;;;;4919870;29;20256;-48
2022/11/07 10:17:07;;;;;;;55.70;31.00;;;;;;;;;;4919731;29;20237;-50
2022/11/07 10:19:47;;;;;;;61.65;28.30;;;;;;;;;;4903357;29;20208;-49
2022/11/07 10:22:17;;;;;;;50.45;27.23;;;;;;;;;;4903161;29;20269;-50
2022/11/07 10:24:58;;;;;;;53.35;27.45;;;;;;;;;;4919256;29;20279;-51
2022/11/07 10:27:25;;;;;;;53.17;28.45;;;;;;;;;;4919276;29;20209;-52
2022/11/07 10:29:54;;;;;;;44.33;25.77;;;;;;;;;;4919443;29;20204;-48
2022/11/07 10:32:40;;;;;;;46.35;25.83;;;;;;;;;;4887530;29;20255;-51
2022/11/07 10:35:25;;;;;;;59.00;27.92;;;;;;;;;;4902850;29;20546;-52
2022/11/07 10:37:53;;;;;;;58.75;28.50;;;;;;;;;;4919257;29;20519;-52
2022/11/07 10:40:21;;;;;;;46.40;24.98;;;;;;;;;;4902871;29;20264;-51
2022/11/07 10:42:48;;;;;;;56.97;34.67;;;;;;;;;;4902884;29;20556;-51
2022/11/07 10:45:16;;;;;;;53.15;28.42;;;;;;;;;;4902827;29;20205;-49
2022/11/07 10:47:58;;;;;;;58.38;25.65;;;;;;;;;;4919347;29;20232;-49
2022/11/07 10:50:25;;;;;;;42.50;22.80;;;;;;;;;;4919049;29;20219;-50
2022/11/07 10:52:57;;;;;;;48.95;24.75;;;;;;;;;;4918963;29;20242;-53
2022/11/07 10:55:25;;;;;;;41.22;23.15;;;;;;;;;;4919220;29;20208;-51
2022/11/07 10:57:58;;;;;;;39.45;22.58;;;;;;;;;;4919044;29;20224;-52
2022/11/07 11:00:28;;;;;;;43.30;23.30;;;;;;;;;;4919153;29;20197;-49
2022/11/07 11:02:55;;;;;;;37.35;21.67;;;;;;;;;;4902870;29;20205;-49
2022/11/07 11:05:32;;;;;;;40.47;21.45;;;;;;;;;;4919465;29;20216;-50
2022/11/07 11:08:20;;;;;;;44.78;22.98;;;;;;;;;;4919415;29;20283;-51
2022/11/07 11:10:48;;;;;;;60.10;37.35;;;;;;;;;;4918739;29;20220;-53
2022/11/07 11:13:44;;;;;;;57.50;29.35;;;;;;;;;;4918691;29;20723;-52
2022/11/07 11:16:27;;;;;;;59.75;26.75;;;;;;;;;;4845344;29;20246;-54
2022/11/07 11:18:56;;;;;;;43.90;23.77;;;;;;;;;;4860854;29;20222;-51
2022/11/07 11:21:24;;;;;;;44.13;22.85;;;;;;;;;;4860738;29;20662;-49
2022/11/07 11:23:52;;;;;;;46.97;23.08;;;;;;;;;;4860741;29;20302;-49
2022/11/07 11:26:19;;;;;;;41.55;22.98;;;;;;;;;;4860669;29;20561;-50
2022/11/07 11:28:51;;;;;;;40.92;22.30;;;;;;;;;;4860835;29;20211;-51
2022/11/07 11:31:26;;;;;;;42.55;21.98;;;;;;;;;;4845870;29;20207;-50
2022/11/07 11:33:57;;;;;;;51.88;25.10;;;;;;;;;;4860708;29;20250;-50
2022/11/07 11:36:29;;;;;;;41.20;22.40;;;;;;;;;;4845481;29;20245;-51
2022/11/07 11:38:57;;;;;;;61.05;30.25;;;;;;;;;;4845996;29;20244;-48
2022/11/07 11:41:34;;;;;;;57.35;30.70;;;;;;;;;;4860862;29;20210;-48
2022/11/07 11:44:05;;;;;;;61.42;26.50;;;;;;;;;;4860826;29;20211;-52
2022/11/07 11:46:38;;;;;;;47.55;23.58;;;;;;;;;;4860778;29;20577;-49
2022/11/07 11:49:12;;;;;;;67.00;28.20;;;;;;;;;;4843150;29;20227;-51
2022/11/07 11:51:45;;;;;;;46.13;23.70;;;;;;;;;;4865620;29;20294;-50
2022/11/07 11:54:14;;;;;;;55.08;24.13;;;;;;;;;;4917187;29;20237;-47
2022/11/07 11:56:58;;;;;;;40.35;22.58;;;;;;;;;;4921009;29;20239;-48
2022/11/07 11:59:31;;;;;;;43.90;23.10;;;;;;;;;;4904592;29;20233;-48
2022/11/07 12:02:02;;;;;;;45.55;23.73;;;;;;;;;;4921036;29;20240;-48
2022/11/07 12:04:33;;;;;;;42.70;22.63;;;;;;;;;;4904185;29;20236;-49
2022/11/07 12:07:25;;;;;;;46.40;25.45;;;;;;;;;;4904830;29;20537;-48
2022/11/07 12:09:58;;;;;;;71.55;26.38;;;;;;;;;;4908172;29;20244;-48
2022/11/07 12:12:48;;;;;;;44.30;22.17;;;;;;;;;;4920975;29;20232;-48
2022/11/07 12:15:17;;;;;;;43.72;21.27;;;;;;;;;;4920796;29;20263;-48
2022/11/07 12:17:51;;;;;;;53.40;23.40;;;;;;;;;;4921032;29;20735;-49
2022/11/07 12:20:32;;;;;;;47.60;22.98;;;;;;;;;;4904276;29;20595;-49
2022/11/07 12:23:38;;;;;;;45.10;23.08;;;;;;;;;;4904736;29;20228;-53
2022/11/07 12:26:37;;;;;;;65.07;37.35;;;;;;;;;;4918492;29;20232;-48
2022/11/07 12:29:26;;;;;;;54.15;28.77;;;;;;;;;;4847700;29;20250;-52
2022/11/07 12:32:06;;;;;;;78.90;29.38;;;;;;;;;;4847606;29;20242;-47
2022/11/07 12:34:42;;;;;;;50.90;24.33;;;;;;;;;;4861845;29;20258;-49
2022/11/07 12:37:28;;;;;;;43.10;22.17;;;;;;;;;;4847536;29;20234;-50
2022/11/07 12:40:00;;;;;;;46.00;23.63;;;;;;;;;;4847213;29;20234;-49
2022/11/07 12:42:36;;;;;;;42.30;23.40;;;;;;;;;;4862397;29;20239;-47
2022/11/07 12:45:24;;;;;;;39.92;21.58;;;;;;;;;;4862159;29;20647;-51
2022/11/07 12:48:03;;;;;;;37.13;20.73;;;;;;;;;;4846917;29;20234;-51
2022/11/07 12:50:40;;;;;;;36.83;22.23;;;;;;;;;;4862067;29;20325;-56
2022/11/07 12:53:28;;;;;;;34.95;20.65;;;;;;;;;;4871092;29;20233;-49
2022/11/07 12:56:00;;;;;;;67.53;44.10;;;;;;;;;;4862319;29;20245;-50
2022/11/07 12:58:32;;;;;;;51.17;25.52;;;;;;;;;;4847063;29;20227;-48
2022/11/07 13:01:00;;;;;;;59.92;24.73;;;;;;;;;;4862331;29;20237;-51
2022/11/07 13:03:40;;;;;;;45.38;24.05;;;;;;;;;;4846439;29;20286;-51
2022/11/07 13:06:17;;;;;;;38.95;23.15;;;;;;;;;;4889386;29;20233;-53
2022/11/07 13:09:16;;;;;;;39.50;22.05;;;;;;;;;;4920112;29;20304;-53
2022/11/07 13:12:09;;;;;;;37.42;21.17;;;;;;;;;;4916842;29;20291;-53
2022/11/07 13:14:39;;;;;;;48.13;24.35;;;;;;;;;;4903606;29;20699;-49
2022/11/07 13:17:06;;;;;;;37.85;22.27;;;;;;;;;;4903498;29;20247;-50
2022/11/07 13:19:35;;;;;;;43.85;23.63;;;;;;;;;;4918486;29;20224;-50
2022/11/07 13:22:02;;;;;;;77.90;37.22;;;;;;;;;;4919773;29;20243;-49
2022/11/07 13:24:30;;;;;;;62.65;27.33;;;;;;;;;;4919539;29;20237;-54
2022/11/07 13:26:58;;;;;;;51.17;23.40;;;;;;;;;;4919705;29;20236;-49
2022/11/07 13:29:36;;;;;;;49.20;23.63;;;;;;;;;;4919613;29;20233;-53
2022/11/07 13:32:11;;;;;;;36.63;21.40;;;;;;;;;;4919791;29;20244;-50
2022/11/07 13:34:48;;;;;;;37.83;21.35;;;;;;;;;;4917865;29;20327;-53
2022/11/07 13:37:19;;;;;;;36.38;21.17;;;;;;;;;;4918317;29;20607;-51
2022/11/07 13:39:49;;;;;;;36.45;20.90;;;;;;;;;;4902128;29;20236;-54
2022/11/07 13:42:17;;;;;;;49.05;30.25;;;;;;;;;;4919162;29;20248;-52
2022/11/07 13:44:51;;;;;;;53.83;27.40;;;;;;;;;;4902300;29;20229;-53
2022/11/07 13:47:23;;;;;;;52.58;24.65;;;;;;;;;;4902215;29;20248;-52
2022/11/07 13:49:50;;;;;;;44.60;23.17;;;;;;;;;;4903000;29;20239;-55
2022/11/07 13:52:33;;;;;;;42.67;22.48;;;;;;;;;;4902451;29;20236;-55
2022/11/07 13:55:15;;;;;;;38.63;22.45;;;;;;;;;;4919152;29;20300;-53
2022/11/07 13:57:46;;;;;;;39.38;22.13;;;;;;;;;;4902824;29;20240;-52
2022/11/07 14:00:15;;;;;;;41.50;22.10;;;;;;;;;;4904865;29;20726;-57
2022/11/07 14:02:56;;;;;;;41.83;22.35;;;;;;;;;;4900981;29;20232;-51
2022/11/07 14:05:26;;;;;;;36.88;20.52;;;;;;;;;;4918542;29;20561;-51
2022/11/07 14:08:02;;;;;;;37.83;22.17;;;;;;;;;;4902135;29;20566;-54
2022/11/07 14:10:41;;;;;;;61.72;32.67;;;;;;;;;;4902487;29;20314;-56
2022/11/07 14:13:18;;;;;;;59.72;33.13;;;;;;;;;;4901680;29;20276;-54
2022/11/07 14:15:47;;;;;;;46.85;23.55;;;;;;;;;;4901893;29;20317;-55
2022/11/07 14:18:16;;;;;;;49.55;25.23;;;;;;;;;;4901033;29;20554;-58
2022/11/07 14:20:48;;;;;;;41.22;21.77;;;;;;;;;;4918637;29;20232;-57
2022/11/07 14:23:19;;;;;;;40.80;23.13;;;;;;;;;;4918165;29;20300;-58
2022/11/07 14:25:56;;;;;;;36.10;22.27;;;;;;;;;;4918215;29;20241;-55
2022/11/07 14:28:35;;;;;;;38.97;21.50;;;;;;;;;;4901945;29;20243;-53
2022/11/07 14:31:05;;;;;;;36.50;20.55;;;;;;;;;;4917414;29;20296;-55
2022/11/07 14:33:32;;;;;;;40.00;21.65;;;;;;;;;;4900583;29;20291;-56
2022/11/07 14:36:04;;;;;;;35.85;21.02;;;;;;;;;;4918035;29;20266;-55
2022/11/07 14:38:31;;;;;;;46.65;24.40;;;;;;;;;;4918360;29;20236;-52
2022/11/07 14:41:00;;;;;;;54.30;29.48;;;;;;;;;;4918137;29;20320;-54
2022/11/07 14:43:28;;;;;;;57.42;33.30;;;;;;;;;;4901428;29;20239;-54
2022/11/07 14:46:00;;;;;;;49.83;24.90;;;;;;;;;;4917839;29;20283;-56
2022/11/07 14:48:43;;;;;;;48.78;22.90;;;;;;;;;;4928001;29;20233;-52
2022/11/07 14:51:12;;;;;;;39.20;22.02;;;;;;;;;;4930973;29;20319;-55